createdAt,value
2018-08-22T00:00:02.426Z,4.60
2018-08-22T00:02:31.261Z,4.63
2018-08-22T00:04:59.804Z,4.80
2018-08-22T00:07:28.392Z,4.77
2018-08-22T00:09:56.960Z,4.30
2018-08-22T00:12:25.557Z,4.77
2018-08-22T00:14:54.104Z,4.63
2018-08-22T00:17:22.711Z,4.67
2018-08-22T00:19:51.295Z,4.30
2018-08-22T00:22:19.857Z,4.20
2018-08-22T00:24:48.470Z,4.53
2018-08-22T00:27:17.213Z,4.30
2018-08-22T00:29:45.811Z,4.30
2018-08-22T00:32:14.479Z,5.00
2018-08-22T00:34:43.019Z,4.43
2018-08-22T00:37:11.647Z,4.83
2018-08-22T00:39:40.352Z,4.37
2018-08-22T00:42:08.943Z,4.57
2018-08-22T00:44:37.511Z,4.67
2018-08-22T00:47:06.299Z,4.60
2018-08-22T00:49:34.871Z,4.47
2018-08-22T00:52:03.443Z,4.43
2018-08-22T00:54:32.117Z,4.67
2018-08-22T00:57:00.675Z,4.40
2018-08-22T00:59:29.247Z,4.10
2018-08-22T01:01:57.824Z,4.40
2018-08-22T01:04:26.397Z,4.40
2018-08-22T01:06:54.937Z,4.03
2018-08-22T01:09:23.503Z,4.20
2018-08-22T01:11:52.047Z,4.70
2018-08-22T01:14:20.581Z,4.63
2018-08-22T01:16:49.115Z,4.97
2018-08-22T01:19:17.723Z,5.07
2018-08-22T01:21:46.357Z,4.50
2018-08-22T01:24:14.949Z,4.27
2018-08-22T01:26:43.545Z,4.57
2018-08-22T01:29:12.161Z,4.57
2018-08-22T01:31:40.760Z,4.63
2018-08-22T01:34:09.292Z,4.40
2018-08-22T01:36:37.826Z,4.77
2018-08-22T01:39:07.796Z,4.63
2018-08-22T01:41:36.324Z,4.50
2018-08-22T01:44:04.893Z,4.70
2018-08-22T01:46:33.452Z,4.80
2018-08-22T01:49:02.074Z,5.50
2018-08-22T01:51:30.604Z,4.63
2018-08-22T01:53:59.147Z,4.57
2018-08-22T01:56:27.663Z,4.33
2018-08-22T01:58:56.281Z,4.67
2018-08-22T02:01:24.744Z,4.80
2018-08-22T02:03:53.272Z,4.90
2018-08-22T02:06:21.764Z,4.60
2018-08-22T02:08:50.345Z,4.80
2018-08-22T02:11:18.856Z,4.50
2018-08-22T02:13:47.347Z,4.80
2018-08-22T02:16:15.896Z,4.70
2018-08-22T02:18:44.421Z,4.90
2018-08-22T02:21:13.223Z,4.97
2018-08-22T02:23:41.978Z,4.87
2018-08-22T02:26:10.781Z,4.77
2018-08-22T02:28:39.501Z,5.00
2018-08-22T02:31:08.401Z,4.67
2018-08-22T02:33:37.132Z,4.97
2018-08-22T02:36:05.989Z,5.37
2018-08-22T02:38:34.825Z,4.70
2018-08-22T02:41:03.637Z,5.13
2018-08-22T02:43:32.795Z,4.80
2018-08-22T02:46:01.485Z,4.53
2018-08-22T02:48:30.049Z,5.40
2018-08-22T02:50:58.689Z,5.40
2018-08-22T02:53:33.646Z,4.90
2018-08-22T02:56:02.189Z,5.23
2018-08-22T02:58:30.680Z,4.87
2018-08-22T03:00:59.200Z,4.73
2018-08-22T03:03:27.768Z,5.37
2018-08-22T03:05:56.307Z,5.23
2018-08-22T03:08:24.820Z,5.07
2018-08-22T03:10:53.376Z,5.50
2018-08-22T03:13:21.919Z,5.57
2018-08-22T03:15:50.526Z,5.87
2018-08-22T03:18:19.044Z,5.13
2018-08-22T03:20:47.577Z,5.30
2018-08-22T03:23:16.147Z,4.80
2018-08-22T03:25:44.876Z,5.50
2018-08-22T03:28:13.688Z,5.47
2018-08-22T03:30:42.536Z,5.23
2018-08-22T03:33:11.280Z,5.43
2018-08-22T03:35:40.100Z,5.70
2018-08-22T03:38:08.878Z,5.07
2018-08-22T03:40:37.462Z,5.10
2018-08-22T03:43:05.943Z,5.07
2018-08-22T03:45:34.467Z,5.23
2018-08-22T03:48:03.068Z,5.17
2018-08-22T03:50:31.600Z,5.20
2018-08-22T03:53:00.134Z,5.40
2018-08-22T03:55:28.677Z,5.30
2018-08-22T03:57:57.524Z,6.03
2018-08-22T04:00:26.233Z,5.40
2018-08-22T04:02:55.048Z,5.67
2018-08-22T04:05:23.850Z,5.10
2018-08-22T04:07:52.621Z,5.17
2018-08-22T04:10:21.393Z,5.73
2018-08-22T04:12:50.193Z,6.10
2018-08-22T04:15:18.908Z,5.33
2018-08-22T04:17:47.645Z,5.43
2018-08-22T04:20:16.420Z,5.27
2018-08-22T04:22:45.270Z,5.57
2018-08-22T04:25:14.164Z,5.63
2018-08-22T04:27:43.014Z,5.67
2018-08-22T04:30:11.748Z,5.50
2018-08-22T04:32:40.649Z,5.33
2018-08-22T04:35:09.461Z,5.60
2018-08-22T04:37:38.306Z,5.43
2018-08-22T04:40:07.026Z,5.93
2018-08-22T04:42:35.792Z,6.00
2018-08-22T04:45:04.638Z,5.13
2018-08-22T04:47:33.441Z,5.43
2018-08-22T04:50:02.252Z,5.70
2018-08-22T04:52:30.833Z,5.77
2018-08-22T04:54:59.415Z,6.27
2018-08-22T04:57:28.016Z,5.63
2018-08-22T04:59:56.572Z,6.97
2018-08-22T05:02:25.179Z,6.30
2018-08-22T05:04:53.796Z,6.30
2018-08-22T05:07:22.373Z,6.37
2018-08-22T05:09:50.926Z,6.47
2018-08-22T05:12:19.491Z,5.87
2018-08-22T05:14:48.147Z,5.23
2018-08-22T05:17:17.040Z,5.23
2018-08-22T05:19:45.873Z,5.40
2018-08-22T05:22:14.778Z,5.53
2018-08-22T05:24:43.764Z,5.67
2018-08-22T05:27:19.260Z,6.30
2018-08-22T05:29:48.091Z,7.10
2018-08-22T05:32:16.919Z,6.50
2018-08-22T05:34:45.849Z,6.43
2018-08-22T05:37:14.650Z,6.77
2018-08-22T05:39:43.410Z,6.03
2018-08-22T05:42:12.121Z,5.53
2018-08-22T05:44:40.888Z,6.67
2018-08-22T05:47:09.620Z,6.03
2018-08-22T05:49:38.345Z,5.97
2018-08-22T05:52:07.387Z,6.33
2018-08-22T05:54:36.229Z,6.23
2018-08-22T05:57:04.979Z,5.97
2018-08-22T05:59:33.853Z,6.30
2018-08-22T06:02:02.364Z,5.90
2018-08-22T06:04:30.920Z,5.57
2018-08-22T06:06:59.409Z,5.97
2018-08-22T06:09:27.965Z,6.13
2018-08-22T06:11:56.615Z,6.57
2018-08-22T06:14:25.656Z,5.93
2018-08-22T06:16:54.392Z,6.30
2018-08-22T06:19:23.235Z,6.50
2018-08-22T06:21:51.985Z,6.53
2018-08-22T06:24:20.688Z,5.73
2018-08-22T06:26:49.199Z,6.43
2018-08-22T06:29:17.720Z,6.53
2018-08-22T06:31:46.298Z,6.50
2018-08-22T06:34:14.852Z,6.50
2018-08-22T06:36:43.551Z,6.40
2018-08-22T06:39:12.664Z,6.70
2018-08-22T06:41:41.564Z,6.53
2018-08-22T06:44:10.268Z,6.67
2018-08-22T06:46:38.837Z,7.27
2018-08-22T06:49:07.436Z,8.63
2018-08-22T06:51:36.325Z,6.83
2018-08-22T06:54:05.196Z,5.80
2018-08-22T06:56:34.075Z,5.97
2018-08-22T06:59:02.836Z,5.77
2018-08-22T07:01:31.634Z,5.97
2018-08-22T07:04:00.378Z,6.70
2018-08-22T07:06:29.245Z,6.60
2018-08-22T07:08:58.217Z,6.40
2018-08-22T07:11:27.104Z,6.50
2018-08-22T07:13:55.944Z,6.67
2018-08-22T07:16:24.750Z,6.17
2018-08-22T07:18:53.485Z,6.93
2018-08-22T07:21:22.231Z,6.70
2018-08-22T07:23:50.756Z,6.17
2018-08-22T07:26:19.301Z,6.57
2018-08-22T07:28:47.972Z,6.33
2018-08-22T07:31:16.780Z,5.73
2018-08-22T07:33:45.560Z,6.43
2018-08-22T07:36:14.400Z,6.50
2018-08-22T07:38:43.144Z,5.90
2018-08-22T07:41:11.911Z,6.47
2018-08-22T07:43:40.649Z,6.80
2018-08-22T07:46:09.589Z,7.10
2018-08-22T07:48:38.762Z,6.47
2018-08-22T07:51:07.581Z,6.77
2018-08-22T07:53:36.413Z,6.87
2018-08-22T07:56:05.183Z,6.23
2018-08-22T07:58:34.058Z,6.23
2018-08-22T08:01:03.005Z,5.97
2018-08-22T08:03:31.750Z,5.97
2018-08-22T08:06:00.560Z,5.93
2018-08-22T08:08:29.096Z,5.90
2018-08-22T08:10:57.656Z,6.20
2018-08-22T08:13:28.643Z,7.23
2018-08-22T08:15:57.810Z,5.90
2018-08-22T08:18:26.343Z,6.03
2018-08-22T08:20:54.867Z,5.57
2018-08-22T08:23:23.412Z,6.30
2018-08-22T08:25:51.940Z,6.20
2018-08-22T08:28:20.493Z,5.23
2018-08-22T08:30:49.032Z,5.73
2018-08-22T08:33:17.652Z,6.30
2018-08-22T08:35:46.289Z,5.97
2018-08-22T08:38:14.860Z,5.43
2018-08-22T08:40:43.462Z,5.37
2018-08-22T08:43:12.051Z,6.83
2018-08-22T08:45:40.915Z,6.03
2018-08-22T08:48:09.507Z,5.87
2018-08-22T08:50:38.093Z,5.20
2018-08-22T08:53:06.688Z,5.87
2018-08-22T08:55:35.351Z,5.83
2018-08-22T08:58:04.292Z,5.13
2018-08-22T09:00:32.812Z,5.17
2018-08-22T09:03:01.407Z,5.10
2018-08-22T09:05:29.988Z,5.20
2018-08-22T09:07:59.400Z,5.27
2018-08-22T09:10:27.950Z,5.30
2018-08-22T09:12:56.541Z,4.77
2018-08-22T09:15:25.092Z,5.43
2018-08-22T09:17:53.718Z,5.17
2018-08-22T09:20:22.372Z,5.13
2018-08-22T09:22:50.960Z,5.57
2018-08-22T09:25:19.560Z,4.90
2018-08-22T09:27:48.107Z,4.67
2018-08-22T09:30:16.699Z,5.00
2018-08-22T09:32:45.339Z,5.20
2018-08-22T09:35:13.897Z,6.00
2018-08-22T09:37:42.486Z,5.23
2018-08-22T09:40:11.088Z,4.60
2018-08-22T09:42:39.644Z,5.13
2018-08-22T09:45:08.197Z,4.40
2018-08-22T09:47:36.821Z,4.73
2018-08-22T09:50:05.713Z,4.47
2018-08-22T09:52:34.576Z,4.90
2018-08-22T09:55:06.077Z,4.50
2018-08-22T09:57:34.942Z,4.83
2018-08-22T10:00:03.931Z,4.60
2018-08-22T10:02:32.841Z,4.37
2018-08-22T10:05:01.642Z,4.27
2018-08-22T10:07:30.460Z,4.90
2018-08-22T10:09:59.326Z,3.80
2018-08-22T10:12:28.097Z,4.30
2018-08-22T10:14:56.986Z,4.50
2018-08-22T10:17:25.548Z,4.27
2018-08-22T10:19:54.087Z,4.37
2018-08-22T10:22:22.684Z,4.67
2018-08-22T10:24:51.288Z,4.57
2018-08-22T10:27:19.856Z,5.10
2018-08-22T10:29:48.417Z,5.90
2018-08-22T10:32:16.972Z,4.83
2018-08-22T10:34:45.555Z,5.77
2018-08-22T10:37:14.065Z,5.50
2018-08-22T10:39:42.645Z,5.23
2018-08-22T10:42:11.189Z,5.10
2018-08-22T10:44:39.745Z,5.30
2018-08-22T10:47:08.237Z,4.73
2018-08-22T10:49:36.826Z,5.00
2018-08-22T10:52:05.344Z,5.30
2018-08-22T10:54:33.856Z,5.00
2018-08-22T10:57:02.515Z,4.83
2018-08-22T10:59:31.317Z,4.77
2018-08-22T11:02:00.188Z,4.70
2018-08-22T11:04:28.848Z,4.20
2018-08-22T11:06:57.404Z,4.73
2018-08-22T11:09:25.963Z,4.23
2018-08-22T11:11:54.521Z,4.20
2018-08-22T11:14:23.079Z,4.27
2018-08-22T11:16:51.641Z,3.90
2018-08-22T11:19:20.240Z,3.90
2018-08-22T11:21:59.980Z,4.10
2018-08-22T11:24:39.651Z,3.93
2018-08-22T11:27:19.331Z,4.23
2018-08-22T11:29:59.081Z,4.20
2018-08-22T11:32:38.819Z,4.80
2018-08-22T11:35:06.238Z,4.80
2018-08-22T11:37:34.768Z,4.03
2018-08-22T11:40:03.321Z,3.87
2018-08-22T11:42:31.830Z,4.27
2018-08-22T11:45:00.432Z,4.40
2018-08-22T11:47:28.951Z,4.63
2018-08-22T11:49:57.491Z,3.83
2018-08-22T11:52:26.086Z,4.27
2018-08-22T11:54:54.633Z,4.20
2018-08-22T11:57:23.139Z,4.50
2018-08-22T11:59:51.680Z,4.00
2018-08-22T12:02:20.220Z,4.10
2018-08-22T12:04:48.810Z,4.43
2018-08-22T12:07:17.321Z,3.87
2018-08-22T12:09:45.888Z,4.00
2018-08-22T12:12:14.394Z,3.80
2018-08-22T12:14:42.925Z,3.53
2018-08-22T12:17:11.477Z,4.20
2018-08-22T12:19:40.012Z,3.80
2018-08-22T12:22:08.565Z,4.00
2018-08-22T12:24:37.090Z,4.03
2018-08-22T12:27:05.709Z,4.53
2018-08-22T12:29:34.207Z,3.73
2018-08-22T12:32:02.832Z,3.80
2018-08-22T12:34:31.368Z,4.17
2018-08-22T12:36:59.978Z,3.90
2018-08-22T12:39:28.510Z,4.10
2018-08-22T12:41:57.092Z,3.60
2018-08-22T12:44:25.701Z,4.10
2018-08-22T12:46:54.303Z,3.77
2018-08-22T12:49:22.894Z,4.00
2018-08-22T12:51:51.479Z,3.90
2018-08-22T12:54:20.081Z,4.10
2018-08-22T12:56:48.689Z,4.13
2018-08-22T12:59:17.211Z,3.53
2018-08-22T13:01:45.817Z,3.80
2018-08-22T13:04:14.584Z,3.67
2018-08-22T13:06:43.252Z,4.03
2018-08-22T13:09:12.209Z,3.97
2018-08-22T13:11:41.060Z,3.93
2018-08-22T13:14:09.873Z,3.57
2018-08-22T13:16:38.731Z,3.63
2018-08-22T13:19:07.692Z,3.50
2018-08-22T13:21:36.321Z,3.30
2018-08-22T13:24:04.941Z,3.40
2018-08-22T13:26:33.542Z,3.40
2018-08-22T13:29:02.120Z,3.00
2018-08-22T13:31:30.713Z,3.37
2018-08-22T13:33:59.248Z,3.07
2018-08-22T13:36:27.807Z,3.53
2018-08-22T13:38:56.337Z,3.47
2018-08-22T13:41:24.922Z,3.77
2018-08-22T13:43:53.692Z,3.20
2018-08-22T13:46:22.448Z,3.80
2018-08-22T13:48:51.328Z,3.60
2018-08-22T13:51:20.101Z,3.70
2018-08-22T13:53:48.880Z,4.00
2018-08-22T13:56:17.710Z,3.60
2018-08-22T13:58:46.470Z,3.90
2018-08-22T14:01:15.317Z,4.00
2018-08-22T14:03:44.393Z,3.43
2018-08-22T14:06:13.190Z,3.50
2018-08-22T14:08:42.001Z,3.70
2018-08-22T14:11:10.817Z,3.33
2018-08-22T14:13:39.628Z,3.80
2018-08-22T14:16:08.531Z,3.40
2018-08-22T14:18:37.378Z,3.40
2018-08-22T14:21:06.168Z,3.47
2018-08-22T14:23:35.034Z,3.60
2018-08-22T14:26:03.787Z,3.60
2018-08-22T14:28:32.496Z,3.27
2018-08-22T14:31:01.024Z,3.30
2018-08-22T14:33:29.632Z,3.87
2018-08-22T14:35:58.221Z,3.40
2018-08-22T14:38:26.811Z,3.20
2018-08-22T14:40:55.372Z,3.10
2018-08-22T14:43:24.004Z,3.07
2018-08-22T14:45:52.842Z,3.63
2018-08-22T14:48:21.703Z,3.40
2018-08-22T14:50:50.449Z,3.57
2018-08-22T14:53:19.204Z,3.17
2018-08-22T14:55:48.152Z,3.43
2018-08-22T14:58:16.872Z,3.60
2018-08-22T15:00:45.686Z,3.57
2018-08-22T15:03:14.848Z,2.90
2018-08-22T15:05:43.293Z,3.73
2018-08-22T15:08:12.153Z,3.30
2018-08-22T15:10:41.492Z,3.33
2018-08-22T15:13:10.324Z,3.50
2018-08-22T15:15:39.354Z,3.80
2018-08-22T15:18:08.269Z,3.20
2018-08-22T15:20:37.193Z,3.60
2018-08-22T15:23:06.093Z,3.70
2018-08-22T15:25:34.979Z,3.53
2018-08-22T15:28:03.846Z,3.70
2018-08-22T15:30:32.562Z,3.70
2018-08-22T15:33:01.380Z,3.40
2018-08-22T15:35:30.305Z,3.47
2018-08-22T15:37:59.146Z,3.43
2018-08-22T15:40:27.736Z,3.40
2018-08-22T15:42:56.335Z,3.33
2018-08-22T15:45:24.905Z,3.40
2018-08-22T15:47:53.467Z,3.53
2018-08-22T15:50:22.056Z,3.10
2018-08-22T15:52:50.660Z,3.77
2018-08-22T15:55:19.233Z,3.30
2018-08-22T15:57:58.654Z,3.63
2018-08-22T16:00:39.099Z,3.07
2018-08-22T16:03:08.731Z,3.37
2018-08-22T16:05:38.141Z,3.30
2018-08-22T16:08:07.089Z,3.53
2018-08-22T16:10:35.741Z,3.50
2018-08-22T16:13:04.320Z,3.57
2018-08-22T16:15:34.104Z,3.23
2018-08-22T16:18:06.464Z,3.07
2018-08-22T16:20:41.501Z,3.60
2018-08-22T16:23:12.038Z,3.40
2018-08-22T16:25:46.413Z,3.57
2018-08-22T16:28:15.260Z,3.40
2018-08-22T16:30:44.034Z,3.33
2018-08-22T16:33:12.584Z,3.50
2018-08-22T16:35:41.236Z,3.90
2018-08-22T16:38:11.089Z,3.40
2018-08-22T16:40:41.020Z,3.57
2018-08-22T16:43:09.597Z,3.50
2018-08-22T16:45:45.276Z,3.57
2018-08-22T16:48:17.964Z,3.70
2018-08-22T16:50:46.568Z,3.70
2018-08-22T16:53:15.149Z,3.30
2018-08-22T16:55:43.703Z,3.43
2018-08-22T16:58:12.265Z,3.40
2018-08-22T17:00:44.893Z,3.47
2018-08-22T17:03:13.518Z,3.53
2018-08-22T17:05:42.314Z,3.90
2018-08-22T17:08:11.271Z,3.67
2018-08-22T17:10:58.468Z,3.53
2018-08-22T17:13:38.586Z,3.30
2018-08-22T17:16:07.324Z,3.80
2018-08-22T17:18:35.872Z,3.30
2018-08-22T17:21:04.555Z,3.67
2018-08-22T17:23:33.109Z,3.97
2018-08-22T17:26:01.741Z,3.73
2018-08-22T17:28:37.584Z,3.80
2018-08-22T17:31:06.522Z,3.40
2018-08-22T17:33:39.300Z,3.90
2018-08-22T17:36:08.763Z,4.10
2018-08-22T17:38:37.381Z,5.10
2018-08-22T17:41:06.146Z,6.13
2018-08-22T17:43:55.396Z,4.93
2018-08-22T17:46:26.022Z,4.03
2018-08-22T17:48:54.604Z,3.73
2018-08-22T17:51:23.266Z,5.37
2018-08-22T17:53:51.832Z,7.90
2018-08-22T17:56:21.583Z,4.30
2018-08-22T17:58:51.197Z,3.70
2018-08-22T18:01:19.905Z,3.93
2018-08-22T18:03:48.440Z,4.10
2018-08-22T18:06:17.075Z,4.10
2018-08-22T18:08:45.641Z,4.30
2018-08-22T18:11:14.214Z,3.77
2018-08-22T18:13:42.769Z,5.60
2018-08-22T18:16:11.399Z,4.60
2018-08-22T18:18:40.012Z,4.13
2018-08-22T18:21:08.678Z,4.47
2018-08-22T18:23:40.057Z,5.20
2018-08-22T18:26:08.764Z,6.37
2018-08-22T18:28:37.328Z,4.97
2018-08-22T18:31:06.076Z,4.10
2018-08-22T18:33:39.792Z,4.40
2018-08-22T18:36:08.887Z,3.90
2018-08-22T18:38:37.897Z,4.80
2018-08-22T18:41:07.555Z,4.40
2018-08-22T18:43:36.280Z,4.57
2018-08-22T18:46:07.467Z,6.47
2018-08-22T18:48:36.748Z,4.80
2018-08-22T18:51:05.580Z,4.87
2018-08-22T18:53:34.457Z,4.80
2018-08-22T18:56:15.821Z,4.40
2018-08-22T18:58:44.548Z,4.40
2018-08-22T19:01:13.364Z,4.57
2018-08-22T19:03:42.204Z,4.63
2018-08-22T19:06:11.032Z,4.43
2018-08-22T19:08:40.214Z,4.23
2018-08-22T19:11:09.561Z,4.50
2018-08-22T19:13:38.500Z,4.70
2018-08-22T19:16:08.763Z,8.13
2018-08-22T19:18:37.592Z,8.63
2018-08-22T19:21:07.439Z,5.20
2018-08-22T19:23:36.000Z,5.50
2018-08-22T19:26:05.632Z,5.17
2018-08-22T19:28:49.293Z,4.93
2018-08-22T19:31:17.847Z,4.33
2018-08-22T19:33:46.352Z,5.07
2018-08-22T19:36:15.109Z,4.70
2018-08-22T19:38:44.407Z,5.03
2018-08-22T19:41:24.181Z,5.13
2018-08-22T19:43:52.829Z,4.80
2018-08-22T19:46:21.528Z,6.00
2018-08-22T19:48:50.341Z,4.83
2018-08-22T19:51:19.123Z,7.30
2018-08-22T19:53:58.716Z,6.40
2018-08-22T19:56:28.095Z,5.13
2018-08-22T19:58:56.553Z,5.07
2018-08-22T20:01:25.195Z,4.80
2018-08-22T20:03:55.714Z,5.60
2018-08-22T20:06:24.794Z,5.23
2018-08-22T20:08:54.628Z,4.97
2018-08-22T20:11:23.449Z,5.00
2018-08-22T20:13:54.477Z,5.03
2018-08-22T20:16:23.779Z,5.43
2018-08-22T20:18:53.870Z,4.87
2018-08-22T20:21:27.617Z,4.80
2018-08-22T20:23:56.279Z,7.07
2018-08-22T20:26:25.657Z,6.50
2018-08-22T20:28:55.376Z,4.97
2018-08-22T20:31:24.019Z,5.23
2018-08-22T20:34:07.281Z,5.33
2018-08-22T20:36:35.970Z,5.30
2018-08-22T20:39:08.340Z,5.10
2018-08-22T20:41:37.849Z,5.07
2018-08-22T20:44:09.152Z,4.97
2018-08-22T20:46:38.037Z,5.10
2018-08-22T20:49:06.807Z,5.37
2018-08-22T20:51:35.509Z,5.13
2018-08-22T20:54:09.953Z,8.07
2018-08-22T20:56:45.417Z,5.80
2018-08-22T20:59:15.473Z,6.77
2018-08-22T21:01:46.831Z,8.20
2018-08-22T21:04:15.619Z,7.40
2018-08-22T21:06:44.498Z,5.90
2018-08-22T21:09:13.773Z,5.47
2018-08-22T21:11:43.617Z,5.93
2018-08-22T21:14:12.921Z,5.83
2018-08-22T21:16:41.776Z,6.27
2018-08-22T21:19:10.612Z,5.80
2018-08-22T21:21:39.430Z,6.83
2018-08-22T21:24:08.332Z,5.97
2018-08-22T21:26:42.202Z,6.77
2018-08-22T21:29:11.296Z,5.23
2018-08-22T21:31:40.164Z,5.50
2018-08-22T21:34:14.740Z,7.47
2018-08-22T21:36:45.047Z,8.80
2018-08-22T21:39:19.201Z,6.60
2018-08-22T21:41:48.385Z,6.00
2018-08-22T21:44:20.388Z,8.20
2018-08-22T21:47:11.612Z,7.40
2018-08-22T21:49:40.468Z,6.70
2018-08-22T21:52:09.353Z,7.07
2018-08-22T21:54:38.299Z,6.40
2018-08-22T21:57:07.060Z,5.07
2018-08-22T21:59:35.933Z,5.53
2018-08-22T22:02:06.596Z,4.73
2018-08-22T22:04:36.710Z,4.87
2018-08-22T22:07:06.917Z,5.30
2018-08-22T22:09:42.094Z,5.30
2018-08-22T22:12:16.426Z,5.50
2018-08-22T22:14:48.218Z,5.70
2018-08-22T22:17:17.072Z,5.00
2018-08-22T22:19:46.096Z,5.13
2018-08-22T22:22:14.869Z,5.30
2018-08-22T22:25:09.100Z,5.47
2018-08-22T22:27:37.786Z,5.47
2018-08-22T22:30:06.940Z,5.57
2018-08-22T22:32:35.568Z,4.93
2018-08-22T22:35:04.452Z,5.97
2018-08-22T22:37:33.032Z,5.33
2018-08-22T22:40:01.626Z,5.17
2018-08-22T22:42:30.187Z,5.70
2018-08-22T22:44:59.759Z,5.90
2018-08-22T22:47:32.620Z,5.60
2018-08-22T22:50:01.611Z,6.10
2018-08-22T22:52:38.858Z,5.40
2018-08-22T22:55:08.578Z,5.60
2018-08-22T22:57:38.506Z,5.33
2018-08-22T23:00:08.963Z,5.50
2018-08-22T23:02:37.472Z,5.30
2018-08-22T23:05:06.354Z,5.80
2018-08-22T23:07:36.840Z,5.80
2018-08-22T23:10:07.687Z,5.30
2018-08-22T23:12:40.393Z,5.93
2018-08-22T23:15:13.775Z,5.70
2018-08-22T23:17:42.730Z,5.00
2018-08-22T23:20:24.423Z,6.17
2018-08-22T23:22:53.038Z,5.17
2018-08-22T23:25:21.688Z,5.73
2018-08-22T23:27:50.300Z,5.80
2018-08-22T23:30:21.396Z,5.80
2018-08-22T23:32:50.097Z,5.27
2018-08-22T23:35:25.440Z,5.30
2018-08-22T23:37:58.577Z,5.63
2018-08-22T23:40:28.638Z,5.30
2018-08-22T23:42:57.487Z,5.10
2018-08-22T23:45:26.474Z,4.97
2018-08-22T23:47:55.339Z,5.30
2018-08-22T23:50:26.505Z,5.30
2018-08-22T23:52:56.408Z,4.93
2018-08-22T23:55:26.144Z,5.10
2018-08-22T23:57:56.236Z,5.70
